Relevés horaires Beauvechain (Belgique)


Relevés horaires à Beauvechain - Vendredi 06 Juill. 2018
Heure UTC1 Température [°C] Vent [km/h] Hum. [%] Pres.4 [hPa] Visi. [Km] Nébu. [octa] Préc.5 [mm] Cond.
2m. Res. Ros. Dir.2 Vit. Moy. Raf.3
23:00 19.8 19.8 13.7 NNO 3.7 -- 3.7 68 1022.7(1.0/3h) 20 -- -- --
22:00 21.2 21.2 13.2 NNO 1.9 -- 7.4 60 1022.5(1.4/3h) 20 3/8 -- --
21:00 21.8 21.8 -- NNO 1.9 -- 5.6 -- 1022.8(1.2/3h) 20 3/8 -- --
20:00 23.1 23.1 12.5 NNO 1.9 -- 5.6 51 1021.6(0.6/3h) 20 3/8 -- --
19:00 23.9 23.9 12.3 N 3.7 -- 7.4 48 1020.8(-0.2/3h) 20 3/8 -- --
18:00 25.4 25.4 11.7 N 5.6 -- 11.1 42 1020.8(0.0/3h) 20 5/8 -- --
17:00 26.4 26.4 11.5 NO 5.6 -- 9.3 39 1021.5(10.0/3h) 20 5/8 -- --
16:00 26.2 26.2 10.9 N 3.7 -- 9.3 38 1021(0.2/3h) 20 5/8 -- --
15:00 26.0 26.0 10.7 O 5.6 -- 11.1 38 1020.8(0.0/3h) 20 1/8 -- --
14:00 25.5 25.5 11.0 N 3.7 -- 9.3 40 1020.8(-0.1/3h) 20 1/8 -- --
13:00 25.4 25.4 11.4 NNO 3.7 -- 11.1 42 1020.7(-0.1/3h) 20 1/8 -- --
12:00 25.2 25.2 12.3 N 3.7 -- 11.1 45 1021.5(0.0/3h) 20 1/8 0/6h
--
11:00 25.0 25.0 11.5 N 3.7 -- 11.1 43 1021.1(0.5/3h) 20 1/8 -- --
10:00 23.1 23.1 11.1 N 3.7 -- 9.3 47 1021.1(0.7/3h) 20 1/8 -- --
09:00 21.7 21.7 11.2 N 5.6 -- 9.3 51 1021(0.8/3h) 20 1/8 -- --
08:00 20.8 20.8 12.4 N 3.7 -- 7.4 59 1020.7(1.0/3h) 20 1/8 -- --
07:00 18.6 18.6 12.2 NNO 1.9 -- 5.6 66 1020.6(1.2/3h) 20 1/8 -- --
06:00 17.3 17.3 12.2 NNO 1.9 -- 5.6 72 1020.2(1.1/3h) 20 3/8 -- --
05:00 15.9 15.9 13.9 NNO 1.9 -- 1.9 88 1019.8(0.8/3h) 8 3/8 -- --
04:00 14.8 14.8 13.0 NNO 1.9 -- 3.7 89 1019.5(0.7/3h) 8 4/8 -- --
03:00 14.4 14.4 12.7 NNO 1.9 -- 5.6 90 1019.2(0.7/3h) 9 -- -- --
02:00 14.1 14.1 12.0 NO 3.7 -- 5.6 87 1019(0.5/3h) 16 -- -- --
01:00 15.0 15.0 12.3 NNO 1.9 -- 3.7 84 1018.7(0.8/3h) 20 -- -- --
00:00 15.3 15.3 12.0 NNO 1.9 -- 11.1 81 1018.6(1.3/3h) 20 -- -- --

1 Coordinated Universal Time. Actuellement il est 15:00 locale et 14:00 UTC.

2 Le vent souffle depuis la direction indiquée vers la direction oposée.

3 Les rafales max. sont disponible 40 min après l'heure du relevé.

4 Pour les stations d'altitude (plus de 600m) le géopotentiel du niveau le plus proche de la pression obligatoire est indiqué.

5 Les stations disposant d'un diffuseur peuvent indiquer "trace". Cela signifie que des précipitations ont touchés le sol mais que la quantité est inférieure à 0.1 mm.

Récapitulatif de la journée
Température [°C] Vent [km/h] Ensoleillement4 [h] Precipitations totale5 [mm] Pression [Hpa]
Min1 Max.2 Moy.3 Max. Min Max.
14.0 26.7 0 11.1 0 h 0 min 0 1018.6 1022.8

1 Température minimale relevée entre 18:00 UTC la veille et 18:00 UTC le jour donné.

2 Température maximale relevée entre 06:00 UTC le jour donné et 06:00 UTC le lendemain.

3 Vent moyen de la journée basé sur les relevés horaires.

4 Ensoleillement en heures relevé entre 06:00 UTC la veille et 06:00 UTC le jour donné.

5 Précipitations totales tombées entre 06:00 UTC la jour donné et 06:00 UTC le lendemain.

Graphiques horaires